createdAt,value
2019-01-15T00:00:33.260Z,99605.92
2019-01-15T00:03:01.085Z,99598.78
2019-01-15T00:05:28.874Z,99599.67
2019-01-15T00:08:01.745Z,99596.58
2019-01-15T00:10:29.536Z,99607.08
2019-01-15T00:12:57.312Z,99607.76
2019-01-15T00:15:25.165Z,99604.95
2019-01-15T00:17:52.988Z,99608.67
2019-01-15T00:20:20.773Z,99612.07
2019-01-15T00:22:48.532Z,99617.43
2019-01-15T00:25:16.361Z,99617.67
2019-01-15T00:27:44.167Z,99618.45
2019-01-15T00:30:14.437Z,99630.76
2019-01-15T00:32:42.232Z,99626.81
2019-01-15T00:35:10.183Z,99631.67
2019-01-15T00:37:37.979Z,99632.31
2019-01-15T00:40:10.437Z,99639.22
2019-01-15T00:42:38.231Z,99639.52
2019-01-15T00:45:07.375Z,99637.67
2019-01-15T00:47:54.617Z,99648.97
2019-01-15T00:50:22.383Z,99646.20
2019-01-15T00:52:50.183Z,99650.72
2019-01-15T00:55:17.934Z,99653.13
2019-01-15T00:57:45.704Z,99658.30
2019-01-15T01:00:21.325Z,99666.94
2019-01-15T01:02:49.423Z,99670.47
2019-01-15T01:05:17.965Z,99678.12
2019-01-15T01:07:45.746Z,99672.09
2019-01-15T01:10:14.528Z,99683.53
2019-01-15T01:12:42.325Z,99693.16
2019-01-15T01:15:12.398Z,99695.59
2019-01-15T01:17:40.587Z,99701.33
2019-01-15T01:20:10.818Z,99700.19
2019-01-15T01:22:38.601Z,99699.72
2019-01-15T01:25:09.144Z,99702.05
2019-01-15T01:27:36.927Z,99701.60
2019-01-15T01:30:09.462Z,99706.20
2019-01-15T01:32:37.259Z,99707.02
2019-01-15T01:35:05.254Z,99700.83
2019-01-15T01:37:33.071Z,99699.91
2019-01-15T01:40:00.860Z,99696.28
2019-01-15T01:42:29.454Z,99696.98
2019-01-15T01:44:57.937Z,99696.72
2019-01-15T01:47:25.707Z,99695.95
2019-01-15T01:49:53.487Z,99699.59
2019-01-15T01:52:21.244Z,99695.14
2019-01-15T01:54:49.208Z,99695.51
2019-01-15T01:57:16.978Z,99702.16
2019-01-15T01:59:44.808Z,99698.98
2019-01-15T02:02:12.575Z,99693.02
2019-01-15T02:04:40.397Z,99693.59
2019-01-15T02:07:08.163Z,99691.06
2019-01-15T02:09:35.959Z,99694.61
2019-01-15T02:12:03.724Z,99697.60
2019-01-15T02:14:31.574Z,99693.68
2019-01-15T02:17:04.952Z,99695.75
2019-01-15T02:19:32.741Z,99685.90
2019-01-15T02:22:00.517Z,99692.45
2019-01-15T02:24:28.534Z,99704.49
2019-01-15T02:26:57.672Z,99703.16
2019-01-15T02:29:25.475Z,99698.59
2019-01-15T02:31:53.223Z,99697.59
2019-01-15T02:34:21.044Z,99704.23
2019-01-15T02:36:58.938Z,99705.06
2019-01-15T02:39:26.725Z,99703.02
2019-01-15T02:41:54.481Z,99704.88
2019-01-15T02:44:22.395Z,99712.13
2019-01-15T02:46:50.190Z,99714.61
2019-01-15T02:49:18.011Z,99708.83
2019-01-15T02:51:45.746Z,99712.97
2019-01-15T02:54:13.534Z,99712.50
2019-01-15T02:56:56.400Z,99712.05
2019-01-15T02:59:24.175Z,99712.89
2019-01-15T03:01:51.951Z,99719.61
2019-01-15T03:04:19.763Z,99719.44
2019-01-15T03:06:47.540Z,99722.56
2019-01-15T03:09:15.352Z,99724.20
2019-01-15T03:11:43.119Z,99712.00
2019-01-15T03:14:10.959Z,99710.89
2019-01-15T03:16:38.709Z,99717.91
2019-01-15T03:19:06.513Z,99712.06
2019-01-15T03:21:34.292Z,99709.33
2019-01-15T03:24:02.141Z,99711.91
2019-01-15T03:26:32.883Z,99712.58
2019-01-15T03:29:00.636Z,99717.14
2019-01-15T03:31:28.463Z,99708.98
2019-01-15T03:33:56.201Z,99715.30
2019-01-15T03:36:23.976Z,99714.18
2019-01-15T03:38:51.766Z,99701.61
2019-01-15T03:41:19.592Z,99700.98
2019-01-15T03:43:47.432Z,99698.39
2019-01-15T03:46:15.222Z,99701.55
2019-01-15T03:48:43.120Z,99701.61
2019-01-15T03:51:10.936Z,99708.16
2019-01-15T03:53:38.739Z,99700.84
2019-01-15T03:56:06.543Z,99696.91
2019-01-15T03:58:44.391Z,99695.98
2019-01-15T04:01:12.215Z,99696.95
2019-01-15T04:03:39.934Z,99708.66
2019-01-15T04:06:07.737Z,99707.39
2019-01-15T04:08:40.640Z,99715.36
2019-01-15T04:11:08.429Z,99712.03
2019-01-15T04:13:36.159Z,99706.05
2019-01-15T04:16:04.047Z,99717.16
2019-01-15T04:18:31.935Z,99725.27
2019-01-15T04:20:59.779Z,99730.98
2019-01-15T04:23:27.659Z,99733.59
2019-01-15T04:25:55.453Z,99736.70
2019-01-15T04:28:23.293Z,99736.23
2019-01-15T04:30:51.102Z,99746.39
2019-01-15T04:33:18.869Z,99742.19
2019-01-15T04:35:46.652Z,99743.67
2019-01-15T04:38:24.532Z,99739.19
2019-01-15T04:40:52.301Z,99742.78
2019-01-15T04:43:20.208Z,99740.30
2019-01-15T04:45:47.993Z,99742.63
2019-01-15T04:48:15.877Z,99738.72
2019-01-15T04:50:43.703Z,99738.23
2019-01-15T04:53:11.498Z,99737.91
2019-01-15T04:55:39.264Z,99736.25
2019-01-15T04:58:12.194Z,99740.97
2019-01-15T05:00:39.969Z,99737.86
2019-01-15T05:03:10.420Z,99734.12
2019-01-15T05:05:38.193Z,99732.38
2019-01-15T05:08:16.165Z,99730.95
2019-01-15T05:10:43.986Z,99727.19
2019-01-15T05:13:11.742Z,99728.98
2019-01-15T05:15:39.556Z,99727.49
2019-01-15T05:18:07.318Z,99729.28
2019-01-15T05:20:35.086Z,99732.59
2019-01-15T05:23:22.328Z,99730.62
2019-01-15T05:25:50.517Z,99737.19
2019-01-15T05:28:18.513Z,99726.77
2019-01-15T05:30:46.314Z,99733.28
2019-01-15T05:33:14.709Z,99734.95
2019-01-15T05:35:42.520Z,99727.80
2019-01-15T05:38:15.530Z,99729.95
2019-01-15T05:40:43.302Z,99725.58
2019-01-15T05:43:11.080Z,99725.98
2019-01-15T05:45:42.014Z,99720.13
2019-01-15T05:48:17.471Z,99722.29
2019-01-15T05:50:52.320Z,99725.78
2019-01-15T05:53:20.393Z,99721.20
2019-01-15T05:55:48.234Z,99705.78
2019-01-15T05:58:15.996Z,99707.97
2019-01-15T06:00:43.821Z,99703.92
2019-01-15T06:03:11.638Z,99701.29
2019-01-15T06:05:39.608Z,99701.62
2019-01-15T06:08:22.460Z,99698.38
2019-01-15T06:10:50.243Z,99699.17
2019-01-15T06:13:18.049Z,99695.91
2019-01-15T06:15:45.848Z,99697.84
2019-01-15T06:18:13.711Z,99695.41
2019-01-15T06:20:41.476Z,99703.13
2019-01-15T06:23:09.244Z,99710.87
2019-01-15T06:25:37.036Z,99711.70
2019-01-15T06:28:04.851Z,99708.47
2019-01-15T06:30:41.616Z,99708.33
2019-01-15T06:33:11.124Z,99704.88
2019-01-15T06:35:38.923Z,99699.36
2019-01-15T06:38:06.753Z,99697.13
2019-01-15T06:40:34.544Z,99703.22
2019-01-15T06:43:03.830Z,99698.05
2019-01-15T06:45:32.609Z,99698.58
2019-01-15T06:48:00.650Z,99697.30
2019-01-15T06:50:28.436Z,99693.20
2019-01-15T06:52:56.268Z,99688.67
2019-01-15T06:55:24.480Z,99694.38
2019-01-15T06:57:52.561Z,99690.14
2019-01-15T07:00:23.549Z,99686.86
2019-01-15T07:02:51.429Z,99692.38
2019-01-15T07:05:19.803Z,99686.09
2019-01-15T07:07:47.612Z,99699.31
2019-01-15T07:10:27.014Z,99704.77
2019-01-15T07:12:54.820Z,99709.52
2019-01-15T07:15:22.732Z,99709.85
2019-01-15T07:18:05.695Z,99708.66
2019-01-15T07:20:33.524Z,99706.78
2019-01-15T07:23:02.519Z,99707.09
2019-01-15T07:25:32.889Z,99701.16
2019-01-15T07:28:08.748Z,99699.58
2019-01-15T07:30:41.693Z,99703.02
2019-01-15T07:33:09.728Z,99706.31
2019-01-15T07:35:37.620Z,99709.94
2019-01-15T07:38:05.445Z,99717.05
2019-01-15T07:40:33.258Z,99714.86
2019-01-15T07:43:01.053Z,99716.14
2019-01-15T07:45:28.852Z,99721.11
2019-01-15T07:47:57.755Z,99717.12
2019-01-15T07:50:25.516Z,99720.28
2019-01-15T07:52:53.457Z,99722.50
2019-01-15T07:55:21.301Z,99715.27
2019-01-15T07:57:49.223Z,99705.04
2019-01-15T08:00:18.832Z,99704.36
2019-01-15T08:02:47.526Z,99695.56
2019-01-15T08:05:17.415Z,99713.75
2019-01-15T08:08:02.435Z,99719.81
2019-01-15T08:10:30.200Z,99720.52
2019-01-15T08:12:58.022Z,99727.25
2019-01-15T08:15:26.489Z,99720.08
2019-01-15T08:18:24.814Z,99724.09
2019-01-15T08:20:52.676Z,99717.82
2019-01-15T08:23:20.505Z,99710.00
2019-01-15T08:25:48.298Z,99700.92
2019-01-15T08:28:16.159Z,99705.99
2019-01-15T08:30:43.957Z,99710.23
2019-01-15T08:33:11.828Z,99715.03
2019-01-15T08:35:39.572Z,99732.14
2019-01-15T08:38:07.390Z,99720.33
2019-01-15T08:40:35.200Z,99720.13
2019-01-15T08:43:03.005Z,99717.52
2019-01-15T08:45:30.807Z,99729.07
2019-01-15T08:48:18.864Z,99726.13
2019-01-15T08:50:48.900Z,99741.96
2019-01-15T08:53:19.742Z,99747.88
2019-01-15T08:55:49.421Z,99746.70
2019-01-15T08:58:22.255Z,99754.70
2019-01-15T09:00:50.054Z,99748.19
2019-01-15T09:03:17.910Z,99743.91
2019-01-15T09:05:45.760Z,99741.92
2019-01-15T09:08:13.565Z,99734.47
2019-01-15T09:10:41.366Z,99725.80
2019-01-15T09:13:09.139Z,99722.41
2019-01-15T09:15:36.892Z,99723.97
2019-01-15T09:18:05.630Z,99717.80
2019-01-15T09:20:33.428Z,99709.77
2019-01-15T09:23:01.187Z,99712.23
2019-01-15T09:25:29.025Z,99716.26
2019-01-15T09:27:56.903Z,99726.53
2019-01-15T09:30:24.678Z,99723.20
2019-01-15T09:32:55.523Z,99720.44
2019-01-15T09:35:23.307Z,99712.52
2019-01-15T09:37:56.706Z,99697.83
2019-01-15T09:40:24.621Z,99694.15
2019-01-15T09:42:52.506Z,99690.11
2019-01-15T09:45:22.880Z,99698.65
2019-01-15T09:48:11.054Z,99708.59
2019-01-15T09:50:38.836Z,99706.01
2019-01-15T09:53:07.576Z,99703.63
2019-01-15T09:55:35.558Z,99707.97
2019-01-15T09:58:04.825Z,99719.87
2019-01-15T10:00:32.964Z,99712.23
2019-01-15T10:03:00.762Z,99707.02
2019-01-15T10:05:28.580Z,99697.27
2019-01-15T10:07:56.360Z,99694.84
2019-01-15T10:10:24.185Z,99692.08
2019-01-15T10:12:51.995Z,99690.57
2019-01-15T10:15:19.947Z,99677.47
2019-01-15T10:17:47.737Z,99664.94
2019-01-15T10:20:16.191Z,99663.88
2019-01-15T10:22:44.598Z,99658.00
2019-01-15T10:25:15.956Z,99650.84
2019-01-15T10:28:15.333Z,99647.08
2019-01-15T10:31:48.525Z,99640.91
2019-01-15T10:34:26.559Z,99628.16
2019-01-15T10:36:52.834Z,99628.52
2019-01-15T10:39:20.777Z,99626.99
2019-01-15T10:41:48.672Z,99632.65
2019-01-15T10:44:16.548Z,99633.27
2019-01-15T10:46:44.385Z,99631.50
2019-01-15T10:49:12.215Z,99638.03
2019-01-15T10:51:39.972Z,99631.00
2019-01-15T10:54:07.825Z,99633.98
2019-01-15T10:56:45.673Z,99632.70
2019-01-15T10:59:13.473Z,99629.11
2019-01-15T11:01:41.296Z,99630.30
2019-01-15T11:04:09.092Z,99632.65
2019-01-15T11:06:37.000Z,99624.89
2019-01-15T11:09:08.279Z,99619.72
2019-01-15T11:11:36.069Z,99620.88
2019-01-15T11:14:04.223Z,99614.98
2019-01-15T11:16:42.234Z,99612.98
2019-01-15T11:19:10.070Z,99615.59
2019-01-15T11:21:37.790Z,99613.59
2019-01-15T11:24:05.655Z,99618.44
2019-01-15T11:26:33.438Z,99614.06
2019-01-15T11:29:01.252Z,99619.69
2019-01-15T11:31:29.047Z,99607.82
2019-01-15T11:33:56.849Z,99603.09
2019-01-15T11:36:24.668Z,99600.98
2019-01-15T11:38:52.481Z,99594.70
2019-01-15T11:41:20.283Z,99598.58
2019-01-15T11:43:48.107Z,99595.70
2019-01-15T11:46:15.896Z,99582.74
2019-01-15T11:48:43.901Z,99584.05
2019-01-15T11:51:11.708Z,99583.66
2019-01-15T11:53:39.575Z,99568.13
2019-01-15T11:56:07.418Z,99568.94
2019-01-15T11:58:35.671Z,99562.07
2019-01-15T12:01:23.082Z,99565.26
2019-01-15T12:04:10.429Z,99553.61
2019-01-15T12:06:50.002Z,99558.48
2019-01-15T12:09:40.431Z,99558.31
2019-01-15T12:12:25.679Z,99550.95
2019-01-15T12:15:21.971Z,99553.92
2019-01-15T12:18:18.277Z,99557.08
2019-01-15T12:21:14.912Z,99554.41
2019-01-15T12:24:05.372Z,99552.77
2019-01-15T12:27:04.834Z,99552.00
2019-01-15T12:29:51.105Z,99551.53
2019-01-15T12:32:41.724Z,99551.53
2019-01-15T12:35:35.454Z,99548.23
2019-01-15T12:38:28.856Z,99544.28
2019-01-15T12:41:16.228Z,99544.89
2019-01-15T12:44:21.965Z,99543.54
2019-01-15T12:47:05.978Z,99545.69
2019-01-15T12:49:51.891Z,99540.58
2019-01-15T12:52:34.760Z,99541.72
2019-01-15T12:55:21.421Z,99542.38
2019-01-15T12:58:09.060Z,99537.17
2019-01-15T13:00:49.496Z,99537.34
2019-01-15T13:03:43.218Z,99533.08
2019-01-15T13:06:33.454Z,99525.67
2019-01-15T13:09:20.243Z,99524.38
2019-01-15T13:12:13.511Z,99530.11
2019-01-15T13:14:51.510Z,99522.30
2019-01-15T13:17:42.008Z,99520.06
2019-01-15T13:20:21.687Z,99516.33
2019-01-15T13:23:02.952Z,99516.75
2019-01-15T13:25:53.362Z,99513.86
2019-01-15T13:28:30.629Z,99523.27
2019-01-15T13:31:30.212Z,99519.17
2019-01-15T13:34:17.583Z,99525.61
2019-01-15T13:37:10.751Z,99519.98
2019-01-15T13:39:58.092Z,99512.66
2019-01-15T13:42:44.132Z,99517.14
2019-01-15T13:45:41.557Z,99508.44
2019-01-15T13:48:28.728Z,99503.96
2019-01-15T13:51:25.163Z,99505.86
2019-01-15T13:54:12.528Z,99508.41
2019-01-15T13:56:51.111Z,99507.02
2019-01-15T13:59:37.073Z,99504.80
2019-01-15T14:02:36.428Z,99509.33
2019-01-15T14:05:31.214Z,99516.16
2019-01-15T14:08:24.630Z,99506.73
2019-01-15T14:11:17.777Z,99504.41
2019-01-15T14:14:03.763Z,99512.17
2019-01-15T14:16:56.364Z,99515.67
2019-01-15T14:19:43.744Z,99518.39
2019-01-15T14:22:30.513Z,99518.99
2019-01-15T14:25:18.268Z,99524.70
2019-01-15T14:28:04.506Z,99516.99
2019-01-15T14:31:05.506Z,99511.25
2019-01-15T14:33:53.204Z,99518.78
2019-01-15T14:36:46.015Z,99519.07
2019-01-15T14:39:42.184Z,99512.36
2019-01-15T14:42:28.168Z,99511.55
2019-01-15T14:45:30.443Z,99508.10
2019-01-15T14:48:17.170Z,99499.06
2019-01-15T14:51:02.524Z,99497.61
2019-01-15T14:53:49.887Z,99506.94
2019-01-15T14:56:39.951Z,99506.45
2019-01-15T14:59:39.343Z,99499.25
2019-01-15T15:02:32.527Z,99497.77
2019-01-15T15:05:38.014Z,99495.30
2019-01-15T15:08:24.152Z,99498.56
2019-01-15T15:11:20.829Z,99498.67
2019-01-15T15:14:26.238Z,99483.80
2019-01-15T15:17:37.847Z,99505.17
2019-01-15T15:20:18.336Z,99498.30
2019-01-15T15:23:20.765Z,99489.95
2019-01-15T15:26:06.788Z,99493.25
2019-01-15T15:28:57.386Z,99495.02
2019-01-15T15:31:44.307Z,99490.27
2019-01-15T15:34:22.677Z,99489.27
2019-01-15T15:37:11.581Z,99490.08
2019-01-15T15:39:58.054Z,99488.75
2019-01-15T15:42:46.418Z,99492.81
2019-01-15T15:45:42.543Z,99494.44
2019-01-15T15:48:45.084Z,99484.32
2019-01-15T15:51:35.231Z,99486.26
2019-01-15T15:54:29.716Z,99479.06
2019-01-15T15:57:36.367Z,99480.01
2019-01-15T16:00:31.483Z,99477.88
2019-01-15T16:03:17.600Z,99475.91
2019-01-15T16:06:08.016Z,99477.38
2019-01-15T16:08:52.536Z,99475.91
2019-01-15T16:11:38.426Z,99477.57
2019-01-15T16:14:26.988Z,99473.81
2019-01-15T16:17:17.692Z,99467.61
2019-01-15T16:20:00.721Z,99455.64
2019-01-15T16:22:46.804Z,99449.09
2019-01-15T16:25:36.180Z,99450.57
2019-01-15T16:28:26.634Z,99447.30
2019-01-15T16:31:11.734Z,99446.61
2019-01-15T16:33:57.762Z,99432.22
2019-01-15T16:36:38.510Z,99420.75
2019-01-15T16:39:17.242Z,99431.98
2019-01-15T16:41:53.598Z,99437.66
2019-01-15T16:44:39.768Z,99436.52
2019-01-15T16:47:29.957Z,99448.09
2019-01-15T16:50:17.379Z,99457.41
2019-01-15T16:53:03.332Z,99459.19
2019-01-15T16:55:49.488Z,99458.64
2019-01-15T16:58:31.170Z,99464.08
2019-01-15T17:01:16.835Z,99463.13
2019-01-15T17:04:07.265Z,99465.08
2019-01-15T17:07:03.468Z,99457.75
2019-01-15T17:09:56.885Z,99459.56
2019-01-15T17:13:02.348Z,99454.62
2019-01-15T17:15:48.273Z,99449.70
2019-01-15T17:18:43.378Z,99450.38
2019-01-15T17:21:39.629Z,99449.26
2019-01-15T17:24:27.011Z,99455.96
2019-01-15T17:27:04.532Z,99463.48
2019-01-15T17:29:48.739Z,99447.64
2019-01-15T17:32:31.002Z,99456.00
2019-01-15T17:35:17.208Z,99449.14
2019-01-15T17:38:07.737Z,99457.31
2019-01-15T17:40:53.741Z,99459.45
2019-01-15T17:43:39.090Z,99457.80
2019-01-15T17:46:23.306Z,99455.36
2019-01-15T17:49:21.003Z,99457.26
2019-01-15T17:52:20.733Z,99456.59
2019-01-15T17:55:06.561Z,99454.91
2019-01-15T17:57:45.023Z,99452.27
2019-01-15T18:00:41.369Z,99456.70
2019-01-15T18:03:28.779Z,99457.33
2019-01-15T18:06:22.072Z,99458.45
2019-01-15T18:09:09.462Z,99463.20
2019-01-15T18:11:55.303Z,99459.40
2019-01-15T18:14:41.574Z,99459.23
2019-01-15T18:18:02.622Z,99463.83
2019-01-15T18:20:48.151Z,99465.09
2019-01-15T18:23:30.129Z,99468.88
2019-01-15T18:26:29.733Z,99466.44
2019-01-15T18:29:33.992Z,99467.41
2019-01-15T18:32:21.478Z,99467.13
2019-01-15T18:35:07.689Z,99473.86
2019-01-15T18:38:10.244Z,99479.41
2019-01-15T18:40:56.545Z,99479.93
2019-01-15T18:43:42.368Z,99478.12
2019-01-15T18:46:28.221Z,99474.23
2019-01-15T18:49:05.441Z,99478.80
2019-01-15T18:51:51.699Z,99480.77
2019-01-15T18:54:54.163Z,99484.06
2019-01-15T18:57:39.966Z,99483.76
2019-01-15T19:00:30.144Z,99490.81
2019-01-15T19:03:17.607Z,99487.36
2019-01-15T19:06:06.062Z,99483.63
2019-01-15T19:08:52.102Z,99490.98
2019-01-15T19:11:42.494Z,99479.87
2019-01-15T19:14:27.534Z,99484.13
2019-01-15T19:17:13.758Z,99489.22
2019-01-15T19:19:58.124Z,99485.95
2019-01-15T19:22:35.615Z,99487.45
2019-01-15T19:25:27.175Z,99491.88
2019-01-15T19:28:21.224Z,99488.45
2019-01-15T19:31:12.728Z,99489.77
2019-01-15T19:33:58.462Z,99489.13
2019-01-15T19:36:49.514Z,99492.53
2019-01-15T19:39:36.667Z,99495.80
2019-01-15T19:42:21.801Z,99491.20
2019-01-15T19:45:16.105Z,99493.20
2019-01-15T19:48:28.075Z,99489.77
2019-01-15T19:51:14.278Z,99494.88
2019-01-15T19:54:14.487Z,99491.92
2019-01-15T19:57:07.962Z,99496.00
2019-01-15T20:00:07.696Z,99498.78
2019-01-15T20:02:57.576Z,99491.09
2019-01-15T20:05:44.351Z,99493.23
2019-01-15T20:08:27.686Z,99477.82
2019-01-15T20:11:18.999Z,99489.41
2019-01-15T20:14:01.241Z,99494.33
2019-01-15T20:16:41.642Z,99498.59
2019-01-15T20:19:29.086Z,99496.96
2019-01-15T20:22:22.484Z,99498.60
2019-01-15T20:24:58.948Z,99498.47
2019-01-15T20:27:42.383Z,99502.70
2019-01-15T20:30:33.926Z,99497.30
2019-01-15T20:33:24.230Z,99505.63
2019-01-15T20:35:59.691Z,99503.32
2019-01-15T20:38:46.757Z,99501.49
2019-01-15T20:41:32.948Z,99495.38
2019-01-15T20:44:18.739Z,99504.95
2019-01-15T20:47:05.193Z,99498.19
2019-01-15T20:49:52.605Z,99500.47
2019-01-15T20:52:58.079Z,99497.77
2019-01-15T20:55:51.367Z,99500.80
2019-01-15T20:58:36.759Z,99505.52
2019-01-15T21:01:22.749Z,99508.13
2019-01-15T21:04:19.192Z,99503.70
2019-01-15T21:07:10.956Z,99502.77
2019-01-15T21:10:02.722Z,99503.27
2019-01-15T21:12:55.975Z,99490.86
2019-01-15T21:15:49.599Z,99496.75
2019-01-15T21:18:39.862Z,99495.23
2019-01-15T21:21:36.276Z,99494.07
2019-01-15T21:24:23.311Z,99497.97
2019-01-15T21:27:17.244Z,99494.58
2019-01-15T21:30:04.600Z,99494.51
2019-01-15T21:32:57.853Z,99492.03
2019-01-15T21:35:45.318Z,99492.52
2019-01-15T21:38:27.714Z,99488.94
2019-01-15T21:41:15.119Z,99493.41
2019-01-15T21:44:01.414Z,99488.98
2019-01-15T21:47:04.186Z,99483.37
2019-01-15T21:49:57.984Z,99471.21
2019-01-15T21:52:47.836Z,99480.63
2019-01-15T21:55:41.355Z,99481.70
2019-01-15T21:58:19.359Z,99476.16
2019-01-15T22:01:09.039Z,99478.77
2019-01-15T22:03:56.171Z,99478.44
2019-01-15T22:07:01.936Z,99483.20
2019-01-15T22:10:07.425Z,99479.80
2019-01-15T22:12:54.622Z,99480.33
2019-01-15T22:15:51.442Z,99480.58
2019-01-15T22:18:37.880Z,99477.27
2019-01-15T22:21:22.900Z,99481.68
2019-01-15T22:24:24.657Z,99480.42
2019-01-15T22:27:10.605Z,99478.80
2019-01-15T22:30:10.348Z,99471.12
2019-01-15T22:33:21.476Z,99472.12
2019-01-15T22:36:17.858Z,99468.99
2019-01-15T22:39:20.384Z,99473.34
2019-01-15T22:42:06.326Z,99470.16
2019-01-15T22:45:06.389Z,99468.81
2019-01-15T22:48:12.111Z,99467.02
2019-01-15T22:51:02.519Z,99467.70
2019-01-15T22:53:55.654Z,99464.28
2019-01-15T22:56:35.362Z,99466.95
2019-01-15T22:59:25.512Z,99463.22
2019-01-15T23:02:12.943Z,99463.28
2019-01-15T23:05:04.034Z,99461.72
2019-01-15T23:08:09.782Z,99463.06
2019-01-15T23:10:57.156Z,99458.09
2019-01-15T23:13:44.572Z,99458.05
2019-01-15T23:16:40.952Z,99450.63
2019-01-15T23:19:34.405Z,99445.50
2019-01-15T23:22:30.727Z,99446.92
2019-01-15T23:25:16.734Z,99441.02
2019-01-15T23:28:09.211Z,99444.12
2019-01-15T23:30:55.086Z,99442.64
2019-01-15T23:33:41.756Z,99437.87
2019-01-15T23:36:38.235Z,99434.33
2019-01-15T23:39:41.803Z,99430.25
2019-01-15T23:42:21.628Z,99434.50
2019-01-15T23:45:00.176Z,99431.06
2019-01-15T23:47:50.510Z,99416.21
2019-01-15T23:50:37.940Z,99422.61
2019-01-15T23:53:28.113Z,99422.11
2019-01-15T23:56:14.135Z,99411.38
2019-01-15T23:59:13.803Z,99414.16
